sensor_id;sensor_type;location;lat;lon;timestamp;P1;durP1;ratioP1;P2;durP2;ratioP2
45408;SDS011;31162;51.076;3.784;2023-04-03T00:00:41;27.45;;;24.08;;
45408;SDS011;31162;51.076;3.784;2023-04-03T00:03:07;29.95;;;22.90;;
45408;SDS011;31162;51.076;3.784;2023-04-03T00:05:32;26.45;;;22.23;;
45408;SDS011;31162;51.076;3.784;2023-04-03T00:07:58;25.33;;;21.23;;
45408;SDS011;31162;51.076;3.784;2023-04-03T00:10:24;23.30;;;20.50;;
45408;SDS011;31162;51.076;3.784;2023-04-03T00:12:50;22.88;;;20.48;;
45408;SDS011;31162;51.076;3.784;2023-04-03T00:15:15;21.55;;;19.35;;
45408;SDS011;31162;51.076;3.784;2023-04-03T00:17:41;21.77;;;18.95;;
45408;SDS011;31162;51.076;3.784;2023-04-03T00:20:07;22.08;;;18.80;;
45408;SDS011;31162;51.076;3.784;2023-04-03T00:22:33;21.40;;;19.20;;
45408;SDS011;31162;51.076;3.784;2023-04-03T00:24:59;21.08;;;18.88;;
45408;SDS011;31162;51.076;3.784;2023-04-03T00:27:25;20.77;;;18.70;;
45408;SDS011;31162;51.076;3.784;2023-04-03T00:29:50;22.83;;;20.00;;
45408;SDS011;31162;51.076;3.784;2023-04-03T00:32:16;23.40;;;19.73;;
45408;SDS011;31162;51.076;3.784;2023-04-03T00:34:42;20.83;;;18.05;;
45408;SDS011;31162;51.076;3.784;2023-04-03T00:37:07;21.35;;;18.40;;
45408;SDS011;31162;51.076;3.784;2023-04-03T00:39:33;19.75;;;17.27;;
45408;SDS011;31162;51.076;3.784;2023-04-03T00:41:59;19.52;;;17.42;;
45408;SDS011;31162;51.076;3.784;2023-04-03T00:46:53;20.27;;;18.02;;
45408;SDS011;31162;51.076;3.784;2023-04-03T00:49:18;19.73;;;17.65;;
45408;SDS011;31162;51.076;3.784;2023-04-03T00:51:44;21.52;;;17.13;;
45408;SDS011;31162;51.076;3.784;2023-04-03T00:54:11;19.08;;;17.10;;
45408;SDS011;31162;51.076;3.784;2023-04-03T00:56:37;19.15;;;17.17;;
45408;SDS011;31162;51.076;3.784;2023-04-03T00:59:04;20.55;;;17.58;;
45408;SDS011;31162;51.076;3.784;2023-04-03T01:01:35;21.00;;;18.63;;
45408;SDS011;31162;51.076;3.784;2023-04-03T01:04:02;21.83;;;18.02;;
45408;SDS011;31162;51.076;3.784;2023-04-03T01:06:29;22.00;;;18.05;;
45408;SDS011;31162;51.076;3.784;2023-04-03T01:08:59;20.95;;;18.52;;
45408;SDS011;31162;51.076;3.784;2023-04-03T01:11:25;20.83;;;17.15;;
45408;SDS011;31162;51.076;3.784;2023-04-03T01:13:51;18.42;;;16.08;;
45408;SDS011;31162;51.076;3.784;2023-04-03T01:16:17;18.33;;;16.42;;
45408;SDS011;31162;51.076;3.784;2023-04-03T01:18:43;19.17;;;16.63;;
45408;SDS011;31162;51.076;3.784;2023-04-03T01:21:47;17.45;;;15.77;;
45408;SDS011;31162;51.076;3.784;2023-04-03T01:24:38;18.35;;;14.43;;
45408;SDS011;31162;51.076;3.784;2023-04-03T01:27:06;18.45;;;14.80;;
45408;SDS011;31162;51.076;3.784;2023-04-03T01:29:34;18.65;;;14.93;;
45408;SDS011;31162;51.076;3.784;2023-04-03T01:32:01;20.48;;;15.32;;
45408;SDS011;31162;51.076;3.784;2023-04-03T01:34:28;18.35;;;16.05;;
45408;SDS011;31162;51.076;3.784;2023-04-03T01:36:54;16.60;;;14.25;;
45408;SDS011;31162;51.076;3.784;2023-04-03T01:39:20;18.27;;;15.15;;
45408;SDS011;31162;51.076;3.784;2023-04-03T01:41:46;18.15;;;14.52;;
45408;SDS011;31162;51.076;3.784;2023-04-03T01:44:12;20.83;;;15.13;;
45408;SDS011;31162;51.076;3.784;2023-04-03T01:46:39;17.02;;;14.40;;
45408;SDS011;31162;51.076;3.784;2023-04-03T01:49:06;19.85;;;14.95;;
45408;SDS011;31162;51.076;3.784;2023-04-03T01:51:31;15.73;;;13.90;;
45408;SDS011;31162;51.076;3.784;2023-04-03T01:53:58;17.13;;;14.57;;
45408;SDS011;31162;51.076;3.784;2023-04-03T01:56:23;17.60;;;14.93;;
45408;SDS011;31162;51.076;3.784;2023-04-03T01:58:50;15.30;;;13.77;;
45408;SDS011;31162;51.076;3.784;2023-04-03T02:01:15;15.85;;;13.93;;
45408;SDS011;31162;51.076;3.784;2023-04-03T02:03:42;17.80;;;14.90;;
45408;SDS011;31162;51.076;3.784;2023-04-03T02:06:08;19.98;;;14.88;;
45408;SDS011;31162;51.076;3.784;2023-04-03T02:08:34;18.52;;;14.80;;
45408;SDS011;31162;51.076;3.784;2023-04-03T02:11:00;19.95;;;14.55;;
45408;SDS011;31162;51.076;3.784;2023-04-03T02:13:26;18.13;;;14.02;;
45408;SDS011;31162;51.076;3.784;2023-04-03T02:15:51;15.75;;;14.05;;
45408;SDS011;31162;51.076;3.784;2023-04-03T02:18:17;17.58;;;14.88;;
45408;SDS011;31162;51.076;3.784;2023-04-03T02:20:42;19.13;;;14.57;;
45408;SDS011;31162;51.076;3.784;2023-04-03T02:23:08;17.67;;;14.38;;
45408;SDS011;31162;51.076;3.784;2023-04-03T02:25:35;16.42;;;14.50;;
45408;SDS011;31162;51.076;3.784;2023-04-03T02:28:00;17.40;;;13.52;;
45408;SDS011;31162;51.076;3.784;2023-04-03T02:30:26;17.80;;;14.55;;
45408;SDS011;31162;51.076;3.784;2023-04-03T02:32:52;19.00;;;17.00;;
45408;SDS011;31162;51.076;3.784;2023-04-03T02:35:18;19.05;;;17.15;;
45408;SDS011;31162;51.076;3.784;2023-04-03T02:37:44;18.35;;;16.48;;
45408;SDS011;31162;51.076;3.784;2023-04-03T02:40:10;18.40;;;15.52;;
45408;SDS011;31162;51.076;3.784;2023-04-03T02:42:36;19.10;;;15.82;;
45408;SDS011;31162;51.076;3.784;2023-04-03T02:45:02;17.38;;;15.60;;
45408;SDS011;31162;51.076;3.784;2023-04-03T02:47:28;19.92;;;16.80;;
45408;SDS011;31162;51.076;3.784;2023-04-03T02:49:54;17.58;;;15.65;;
45408;SDS011;31162;51.076;3.784;2023-04-03T02:52:20;18.52;;;16.05;;
45408;SDS011;31162;51.076;3.784;2023-04-03T02:54:46;17.85;;;15.68;;
45408;SDS011;31162;51.076;3.784;2023-04-03T02:57:12;17.35;;;15.40;;
45408;SDS011;31162;51.076;3.784;2023-04-03T02:59:37;17.85;;;16.00;;
45408;SDS011;31162;51.076;3.784;2023-04-03T03:02:07;17.17;;;15.15;;
45408;SDS011;31162;51.076;3.784;2023-04-03T03:04:33;19.70;;;15.98;;
45408;SDS011;31162;51.076;3.784;2023-04-03T03:06:59;18.60;;;15.82;;
45408;SDS011;31162;51.076;3.784;2023-04-03T03:09:25;17.40;;;14.90;;
45408;SDS011;31162;51.076;3.784;2023-04-03T03:11:51;18.27;;;15.05;;
45408;SDS011;31162;51.076;3.784;2023-04-03T03:14:17;16.27;;;14.65;;
45408;SDS011;31162;51.076;3.784;2023-04-03T03:16:43;18.23;;;14.85;;
45408;SDS011;31162;51.076;3.784;2023-04-03T03:19:09;17.98;;;15.00;;
45408;SDS011;31162;51.076;3.784;2023-04-03T03:21:35;18.15;;;15.65;;
45408;SDS011;31162;51.076;3.784;2023-04-03T03:24:00;18.85;;;15.02;;
45408;SDS011;31162;51.076;3.784;2023-04-03T03:26:26;20.10;;;16.02;;
45408;SDS011;31162;51.076;3.784;2023-04-03T03:28:52;18.88;;;15.45;;
45408;SDS011;31162;51.076;3.784;2023-04-03T03:31:18;17.88;;;15.98;;
45408;SDS011;31162;51.076;3.784;2023-04-03T03:33:44;19.75;;;15.82;;
45408;SDS011;31162;51.076;3.784;2023-04-03T03:36:10;21.73;;;16.55;;
45408;SDS011;31162;51.076;3.784;2023-04-03T03:38:36;20.17;;;16.80;;
45408;SDS011;31162;51.076;3.784;2023-04-03T03:41:02;17.95;;;16.10;;
45408;SDS011;31162;51.076;3.784;2023-04-03T03:43:28;18.73;;;15.52;;
45408;SDS011;31162;51.076;3.784;2023-04-03T03:45:53;47.75;;;37.00;;
45408;SDS011;31162;51.076;3.784;2023-04-03T03:48:20;21.80;;;16.35;;
45408;SDS011;31162;51.076;3.784;2023-04-03T03:50:46;22.55;;;16.30;;
45408;SDS011;31162;51.076;3.784;2023-04-03T03:53:12;20.90;;;15.82;;
45408;SDS011;31162;51.076;3.784;2023-04-03T03:55:38;21.38;;;17.17;;
45408;SDS011;31162;51.076;3.784;2023-04-03T03:58:04;22.42;;;16.40;;
45408;SDS011;31162;51.076;3.784;2023-04-03T04:00:30;21.30;;;16.67;;
45408;SDS011;31162;51.076;3.784;2023-04-03T04:02:55;19.00;;;16.40;;
45408;SDS011;31162;51.076;3.784;2023-04-03T04:05:21;42.08;;;32.97;;
45408;SDS011;31162;51.076;3.784;2023-04-03T04:07:47;20.73;;;16.73;;
45408;SDS011;31162;51.076;3.784;2023-04-03T04:10:13;18.80;;;16.20;;
45408;SDS011;31162;51.076;3.784;2023-04-03T04:12:39;18.38;;;14.65;;
45408;SDS011;31162;51.076;3.784;2023-04-03T04:15:04;21.40;;;15.70;;
45408;SDS011;31162;51.076;3.784;2023-04-03T04:17:31;18.75;;;15.45;;
45408;SDS011;31162;51.076;3.784;2023-04-03T04:19:56;20.05;;;15.90;;
45408;SDS011;31162;51.076;3.784;2023-04-03T04:22:22;19.15;;;15.90;;
45408;SDS011;31162;51.076;3.784;2023-04-03T04:24:48;20.42;;;16.20;;
45408;SDS011;31162;51.076;3.784;2023-04-03T04:27:13;22.88;;;16.73;;
45408;SDS011;31162;51.076;3.784;2023-04-03T04:29:40;21.48;;;16.48;;
45408;SDS011;31162;51.076;3.784;2023-04-03T04:32:06;22.05;;;16.40;;
45408;SDS011;31162;51.076;3.784;2023-04-03T04:34:31;22.45;;;17.45;;
45408;SDS011;31162;51.076;3.784;2023-04-03T04:36:57;21.23;;;16.40;;
45408;SDS011;31162;51.076;3.784;2023-04-03T04:39:23;21.65;;;17.13;;
45408;SDS011;31162;51.076;3.784;2023-04-03T04:41:48;21.42;;;18.15;;
45408;SDS011;31162;51.076;3.784;2023-04-03T04:44:14;22.83;;;18.55;;
45408;SDS011;31162;51.076;3.784;2023-04-03T04:46:40;25.38;;;18.00;;
45408;SDS011;31162;51.076;3.784;2023-04-03T04:49:06;24.27;;;18.25;;
45408;SDS011;31162;51.076;3.784;2023-04-03T04:51:32;23.13;;;17.33;;
45408;SDS011;31162;51.076;3.784;2023-04-03T04:53:57;24.85;;;18.45;;
45408;SDS011;31162;51.076;3.784;2023-04-03T04:56:23;24.17;;;18.45;;
45408;SDS011;31162;51.076;3.784;2023-04-03T04:58:48;20.23;;;18.00;;
45408;SDS011;31162;51.076;3.784;2023-04-03T05:01:14;20.95;;;16.83;;
45408;SDS011;31162;51.076;3.784;2023-04-03T05:03:40;20.33;;;16.45;;
45408;SDS011;31162;51.076;3.784;2023-04-03T05:06:05;20.83;;;16.60;;
45408;SDS011;31162;51.076;3.784;2023-04-03T05:08:32;20.27;;;16.83;;
45408;SDS011;31162;51.076;3.784;2023-04-03T05:10:58;21.88;;;17.67;;
45408;SDS011;31162;51.076;3.784;2023-04-03T05:13:23;21.83;;;17.63;;
45408;SDS011;31162;51.076;3.784;2023-04-03T05:15:49;54.10;;;38.50;;
45408;SDS011;31162;51.076;3.784;2023-04-03T05:18:15;45.38;;;35.72;;
45408;SDS011;31162;51.076;3.784;2023-04-03T05:20:41;26.88;;;20.75;;
45408;SDS011;31162;51.076;3.784;2023-04-03T05:23:08;23.73;;;19.02;;
45408;SDS011;31162;51.076;3.784;2023-04-03T05:25:36;25.35;;;18.63;;
45408;SDS011;31162;51.076;3.784;2023-04-03T05:28:03;23.38;;;18.27;;
45408;SDS011;31162;51.076;3.784;2023-04-03T05:30:28;24.85;;;19.45;;
45408;SDS011;31162;51.076;3.784;2023-04-03T05:32:54;25.92;;;19.20;;
45408;SDS011;31162;51.076;3.784;2023-04-03T05:35:20;26.13;;;19.17;;
45408;SDS011;31162;51.076;3.784;2023-04-03T05:37:46;26.55;;;19.73;;
45408;SDS011;31162;51.076;3.784;2023-04-03T05:40:12;29.92;;;21.80;;
45408;SDS011;31162;51.076;3.784;2023-04-03T05:42:38;29.85;;;22.50;;
45408;SDS011;31162;51.076;3.784;2023-04-03T05:45:03;30.40;;;22.40;;
45408;SDS011;31162;51.076;3.784;2023-04-03T05:47:29;28.90;;;20.83;;
45408;SDS011;31162;51.076;3.784;2023-04-03T05:49:55;27.70;;;21.02;;
45408;SDS011;31162;51.076;3.784;2023-04-03T05:52:23;29.73;;;21.80;;
45408;SDS011;31162;51.076;3.784;2023-04-03T05:54:55;29.35;;;20.83;;
45408;SDS011;31162;51.076;3.784;2023-04-03T05:57:21;26.30;;;21.50;;
45408;SDS011;31162;51.076;3.784;2023-04-03T05:59:47;27.67;;;21.23;;
45408;SDS011;31162;51.076;3.784;2023-04-03T06:02:17;26.42;;;21.35;;
45408;SDS011;31162;51.076;3.784;2023-04-03T06:04:45;23.77;;;20.08;;
45408;SDS011;31162;51.076;3.784;2023-04-03T06:07:13;21.08;;;18.17;;
45408;SDS011;31162;51.076;3.784;2023-04-03T06:09:41;20.15;;;16.50;;
45408;SDS011;31162;51.076;3.784;2023-04-03T06:12:07;17.80;;;14.55;;
45408;SDS011;31162;51.076;3.784;2023-04-03T06:14:33;14.15;;;11.98;;
45408;SDS011;31162;51.076;3.784;2023-04-03T06:17:00;10.48;;;9.45;;
45408;SDS011;31162;51.076;3.784;2023-04-03T06:19:26;10.10;;;7.93;;
45408;SDS011;31162;51.076;3.784;2023-04-03T06:21:52;9.77;;;7.53;;
45408;SDS011;31162;51.076;3.784;2023-04-03T06:24:18;7.85;;;7.05;;
45408;SDS011;31162;51.076;3.784;2023-04-03T06:26:46;10.05;;;7.07;;
45408;SDS011;31162;51.076;3.784;2023-04-03T06:29:12;9.80;;;6.80;;
45408;SDS011;31162;51.076;3.784;2023-04-03T06:31:38;10.57;;;6.97;;
45408;SDS011;31162;51.076;3.784;2023-04-03T06:34:04;7.75;;;6.97;;
45408;SDS011;31162;51.076;3.784;2023-04-03T06:36:32;7.50;;;6.72;;
45408;SDS011;31162;51.076;3.784;2023-04-03T06:38:58;7.82;;;6.53;;
45408;SDS011;31162;51.076;3.784;2023-04-03T06:41:24;8.27;;;6.93;;
45408;SDS011;31162;51.076;3.784;2023-04-03T06:43:51;6.93;;;6.15;;
45408;SDS011;31162;51.076;3.784;2023-04-03T06:46:18;6.60;;;5.90;;
45408;SDS011;31162;51.076;3.784;2023-04-03T06:48:46;6.07;;;5.57;;
45408;SDS011;31162;51.076;3.784;2023-04-03T06:53:46;7.80;;;6.13;;
45408;SDS011;31162;51.076;3.784;2023-04-03T06:56:12;8.25;;;6.40;;
45408;SDS011;31162;51.076;3.784;2023-04-03T06:58:38;6.82;;;6.22;;
45408;SDS011;31162;51.076;3.784;2023-04-03T07:01:05;9.88;;;6.13;;
45408;SDS011;31162;51.076;3.784;2023-04-03T07:03:31;7.18;;;6.28;;
45408;SDS011;31162;51.076;3.784;2023-04-03T07:05:56;6.93;;;6.22;;
45408;SDS011;31162;51.076;3.784;2023-04-03T07:08:22;7.47;;;6.45;;
45408;SDS011;31162;51.076;3.784;2023-04-03T07:10:48;6.88;;;5.80;;
45408;SDS011;31162;51.076;3.784;2023-04-03T07:13:15;7.13;;;6.50;;
45408;SDS011;31162;51.076;3.784;2023-04-03T07:15:41;8.23;;;6.30;;
45408;SDS011;31162;51.076;3.784;2023-04-03T07:18:07;6.90;;;6.20;;
45408;SDS011;31162;51.076;3.784;2023-04-03T07:20:33;6.85;;;6.18;;
45408;SDS011;31162;51.076;3.784;2023-04-03T07:22:59;8.38;;;6.10;;
45408;SDS011;31162;51.076;3.784;2023-04-03T07:25:26;8.15;;;5.85;;
45408;SDS011;31162;51.076;3.784;2023-04-03T07:27:53;6.32;;;5.72;;
45408;SDS011;31162;51.076;3.784;2023-04-03T07:30:19;6.78;;;5.55;;
45408;SDS011;31162;51.076;3.784;2023-04-03T07:32:45;8.75;;;6.03;;
45408;SDS011;31162;51.076;3.784;2023-04-03T07:35:11;6.10;;;5.28;;
45408;SDS011;31162;51.076;3.784;2023-04-03T07:37:37;6.25;;;5.68;;
45408;SDS011;31162;51.076;3.784;2023-04-03T07:40:02;6.57;;;5.97;;
45408;SDS011;31162;51.076;3.784;2023-04-03T07:42:29;9.00;;;6.30;;
45408;SDS011;31162;51.076;3.784;2023-04-03T07:44:55;8.05;;;6.10;;
45408;SDS011;31162;51.076;3.784;2023-04-03T07:47:21;7.35;;;6.07;;
45408;SDS011;31162;51.076;3.784;2023-04-03T07:49:47;6.15;;;5.32;;
45408;SDS011;31162;51.076;3.784;2023-04-03T07:52:13;6.95;;;5.55;;
45408;SDS011;31162;51.076;3.784;2023-04-03T07:54:40;6.50;;;5.80;;
45408;SDS011;31162;51.076;3.784;2023-04-03T07:57:07;6.82;;;6.13;;
45408;SDS011;31162;51.076;3.784;2023-04-03T07:59:32;6.43;;;5.78;;
45408;SDS011;31162;51.076;3.784;2023-04-03T08:01:59;8.25;;;6.53;;
45408;SDS011;31162;51.076;3.784;2023-04-03T08:04:24;6.05;;;5.35;;
45408;SDS011;31162;51.076;3.784;2023-04-03T08:06:51;7.72;;;5.32;;
45408;SDS011;31162;51.076;3.784;2023-04-03T08:09:17;7.40;;;5.18;;
45408;SDS011;31162;51.076;3.784;2023-04-03T08:11:43;7.80;;;5.22;;
45408;SDS011;31162;51.076;3.784;2023-04-03T08:14:10;7.78;;;5.75;;
45408;SDS011;31162;51.076;3.784;2023-04-03T08:16:41;6.30;;;5.50;;
45408;SDS011;31162;51.076;3.784;2023-04-03T08:19:10;5.65;;;5.05;;
45408;SDS011;31162;51.076;3.784;2023-04-03T08:21:39;6.97;;;5.55;;
45408;SDS011;31162;51.076;3.784;2023-04-03T08:24:06;6.40;;;5.53;;
45408;SDS011;31162;51.076;3.784;2023-04-03T08:26:32;9.55;;;7.13;;
45408;SDS011;31162;51.076;3.784;2023-04-03T08:28:58;6.95;;;5.70;;
45408;SDS011;31162;51.076;3.784;2023-04-03T08:31:24;6.22;;;5.28;;
45408;SDS011;31162;51.076;3.784;2023-04-03T08:33:49;6.00;;;5.38;;
45408;SDS011;31162;51.076;3.784;2023-04-03T08:36:25;7.65;;;5.40;;
45408;SDS011;31162;51.076;3.784;2023-04-03T08:38:52;6.97;;;4.90;;
45408;SDS011;31162;51.076;3.784;2023-04-03T08:41:39;5.05;;;4.60;;
45408;SDS011;31162;51.076;3.784;2023-04-03T08:49:22;6.43;;;4.35;;
45408;SDS011;31162;51.076;3.784;2023-04-03T08:51:53;6.10;;;4.20;;
45408;SDS011;31162;51.076;3.784;2023-04-03T08:54:28;6.05;;;3.92;;
45408;SDS011;31162;51.076;3.784;2023-04-03T08:56:57;6.50;;;4.22;;
45408;SDS011;31162;51.076;3.784;2023-04-03T08:59:26;5.78;;;3.92;;
45408;SDS011;31162;51.076;3.784;2023-04-03T09:01:57;6.13;;;3.47;;
45408;SDS011;31162;51.076;3.784;2023-04-03T09:04:27;4.22;;;3.35;;
45408;SDS011;31162;51.076;3.784;2023-04-03T09:06:58;5.88;;;3.25;;
45408;SDS011;31162;51.076;3.784;2023-04-03T09:12:15;5.60;;;4.25;;
45408;SDS011;31162;51.076;3.784;2023-04-03T09:23:39;6.85;;;2.92;;
45408;SDS011;31162;51.076;3.784;2023-04-03T09:26:23;5.50;;;3.50;;
45408;SDS011;31162;51.076;3.784;2023-04-03T09:28:54;4.15;;;3.00;;
45408;SDS011;31162;51.076;3.784;2023-04-03T09:31:26;5.38;;;3.03;;
45408;SDS011;31162;51.076;3.784;2023-04-03T09:34:03;3.50;;;2.70;;
45408;SDS011;31162;51.076;3.784;2023-04-03T09:36:44;5.95;;;2.78;;
45408;SDS011;31162;51.076;3.784;2023-04-03T09:39:16;4.78;;;3.35;;
45408;SDS011;31162;51.076;3.784;2023-04-03T09:42:05;4.25;;;2.30;;
45408;SDS011;31162;51.076;3.784;2023-04-03T09:46:59;4.28;;;2.67;;
45408;SDS011;31162;51.076;3.784;2023-04-03T09:49:42;4.53;;;2.53;;
45408;SDS011;31162;51.076;3.784;2023-04-03T09:52:18;8.10;;;2.97;;
45408;SDS011;31162;51.076;3.784;2023-04-03T09:54:51;4.85;;;2.42;;
45408;SDS011;31162;51.076;3.784;2023-04-03T09:57:16;4.50;;;2.58;;
45408;SDS011;31162;51.076;3.784;2023-04-03T09:59:48;3.72;;;2.50;;
45408;SDS011;31162;51.076;3.784;2023-04-03T10:02:28;5.00;;;2.33;;
45408;SDS011;31162;51.076;3.784;2023-04-03T10:08:08;5.60;;;2.47;;
45408;SDS011;31162;51.076;3.784;2023-04-03T10:10:35;3.17;;;2.70;;
45408;SDS011;31162;51.076;3.784;2023-04-03T10:13:06;4.10;;;2.33;;
45408;SDS011;31162;51.076;3.784;2023-04-03T10:21:06;4.20;;;2.70;;
45408;SDS011;31162;51.076;3.784;2023-04-03T10:24:00;3.70;;;2.38;;
45408;SDS011;31162;51.076;3.784;2023-04-03T10:26:45;5.47;;;2.90;;
45408;SDS011;31162;51.076;3.784;2023-04-03T10:29:32;3.83;;;2.45;;
45408;SDS011;31162;51.076;3.784;2023-04-03T10:35:10;4.78;;;2.25;;
45408;SDS011;31162;51.076;3.784;2023-04-03T10:46:00;2.35;;;1.38;;
45408;SDS011;31162;51.076;3.784;2023-04-03T11:02:10;2.92;;;1.60;;
45408;SDS011;31162;51.076;3.784;2023-04-03T11:04:44;3.33;;;1.80;;
45408;SDS011;31162;51.076;3.784;2023-04-03T11:07:20;3.60;;;1.63;;
45408;SDS011;31162;51.076;3.784;2023-04-03T11:10:02;3.28;;;1.77;;
45408;SDS011;31162;51.076;3.784;2023-04-03T11:15:11;2.55;;;1.40;;
45408;SDS011;31162;51.076;3.784;2023-04-03T11:17:42;3.03;;;1.40;;
45408;SDS011;31162;51.076;3.784;2023-04-03T11:23:00;2.75;;;1.40;;
45408;SDS011;31162;51.076;3.784;2023-04-03T11:25:46;3.15;;;1.30;;
45408;SDS011;31162;51.076;3.784;2023-04-03T11:28:15;1.75;;;1.33;;
45408;SDS011;31162;51.076;3.784;2023-04-03T11:36:52;2.85;;;1.50;;
45408;SDS011;31162;51.076;3.784;2023-04-03T11:41:54;2.70;;;1.15;;
45408;SDS011;31162;51.076;3.784;2023-04-03T11:44:34;3.58;;;1.35;;
45408;SDS011;31162;51.076;3.784;2023-04-03T11:47:03;5.30;;;1.27;;
45408;SDS011;31162;51.076;3.784;2023-04-03T11:57:45;2.05;;;1.23;;
45408;SDS011;31162;51.076;3.784;2023-04-03T12:21:14;2.40;;;1.48;;
45408;SDS011;31162;51.076;3.784;2023-04-03T12:24:01;4.85;;;2.00;;
45408;SDS011;31162;51.076;3.784;2023-04-03T12:29:25;4.85;;;1.48;;
45408;SDS011;31162;51.076;3.784;2023-04-03T12:34:50;2.70;;;1.73;;
45408;SDS011;31162;51.076;3.784;2023-04-03T12:43:14;2.30;;;1.40;;
45408;SDS011;31162;51.076;3.784;2023-04-03T12:48:51;2.40;;;1.45;;
45408;SDS011;31162;51.076;3.784;2023-04-03T12:53:57;4.32;;;1.40;;
45408;SDS011;31162;51.076;3.784;2023-04-03T12:56:38;2.92;;;1.50;;
45408;SDS011;31162;51.076;3.784;2023-04-03T12:59:18;4.43;;;1.40;;
45408;SDS011;31162;51.076;3.784;2023-04-03T13:01:58;3.42;;;1.50;;
45408;SDS011;31162;51.076;3.784;2023-04-03T13:04:26;6.78;;;1.73;;
45408;SDS011;31162;51.076;3.784;2023-04-03T13:06:53;2.92;;;1.58;;
45408;SDS011;31162;51.076;3.784;2023-04-03T13:11:46;2.08;;;1.30;;
45408;SDS011;31162;51.076;3.784;2023-04-03T13:14:19;2.70;;;1.30;;
45408;SDS011;31162;51.076;3.784;2023-04-03T13:16:56;1.90;;;1.27;;
45408;SDS011;31162;51.076;3.784;2023-04-03T13:19:29;2.60;;;1.30;;
45408;SDS011;31162;51.076;3.784;2023-04-03T13:21:59;4.57;;;1.27;;
45408;SDS011;31162;51.076;3.784;2023-04-03T13:24:30;1.85;;;1.20;;
45408;SDS011;31162;51.076;3.784;2023-04-03T13:26:58;1.42;;;1.20;;
45408;SDS011;31162;51.076;3.784;2023-04-03T13:29:29;4.47;;;1.45;;
45408;SDS011;31162;51.076;3.784;2023-04-03T13:31:58;2.42;;;1.00;;
45408;SDS011;31162;51.076;3.784;2023-04-03T13:34:26;1.75;;;1.20;;
45408;SDS011;31162;51.076;3.784;2023-04-03T13:36:55;3.38;;;1.23;;
45408;SDS011;31162;51.076;3.784;2023-04-03T13:39:24;2.88;;;1.23;;
45408;SDS011;31162;51.076;3.784;2023-04-03T13:41:56;2.03;;;1.30;;
45408;SDS011;31162;51.076;3.784;2023-04-03T13:44:31;1.30;;;1.05;;
45408;SDS011;31162;51.076;3.784;2023-04-03T13:47:00;1.40;;;1.00;;
45408;SDS011;31162;51.076;3.784;2023-04-03T13:49:36;2.25;;;1.10;;
45408;SDS011;31162;51.076;3.784;2023-04-03T13:54:53;1.42;;;0.90;;
45408;SDS011;31162;51.076;3.784;2023-04-03T13:57:21;2.67;;;1.10;;
45408;SDS011;31162;51.076;3.784;2023-04-03T13:59:47;2.45;;;1.10;;
45408;SDS011;31162;51.076;3.784;2023-04-03T14:02:20;1.58;;;0.80;;
45408;SDS011;31162;51.076;3.784;2023-04-03T14:04:58;13.70;;;1.60;;
45408;SDS011;31162;51.076;3.784;2023-04-03T14:07:26;2.60;;;1.50;;
45408;SDS011;31162;51.076;3.784;2023-04-03T14:09:54;2.33;;;1.15;;
45408;SDS011;31162;51.076;3.784;2023-04-03T14:14:51;2.23;;;1.00;;
45408;SDS011;31162;51.076;3.784;2023-04-03T14:17:18;2.13;;;1.10;;
45408;SDS011;31162;51.076;3.784;2023-04-03T14:19:46;2.72;;;1.20;;
45408;SDS011;31162;51.076;3.784;2023-04-03T14:22:32;3.63;;;1.17;;
45408;SDS011;31162;51.076;3.784;2023-04-03T14:24:59;2.78;;;1.17;;
45408;SDS011;31162;51.076;3.784;2023-04-03T14:27:27;1.92;;;1.05;;
45408;SDS011;31162;51.076;3.784;2023-04-03T14:29:55;2.65;;;1.23;;
45408;SDS011;31162;51.076;3.784;2023-04-03T14:32:24;1.73;;;1.40;;
45408;SDS011;31162;51.076;3.784;2023-04-03T14:34:51;2.10;;;1.15;;
45408;SDS011;31162;51.076;3.784;2023-04-03T14:37:24;2.38;;;1.13;;
45408;SDS011;31162;51.076;3.784;2023-04-03T14:39:53;2.70;;;1.50;;
45408;SDS011;31162;51.076;3.784;2023-04-03T14:42:30;1.60;;;1.20;;
45408;SDS011;31162;51.076;3.784;2023-04-03T14:44:58;2.20;;;1.10;;
45408;SDS011;31162;51.076;3.784;2023-04-03T14:47:27;3.72;;;1.40;;
45408;SDS011;31162;51.076;3.784;2023-04-03T14:49:54;2.40;;;1.27;;
45408;SDS011;31162;51.076;3.784;2023-04-03T14:52:25;1.50;;;1.10;;
45408;SDS011;31162;51.076;3.784;2023-04-03T14:54:56;1.95;;;1.13;;
45408;SDS011;31162;51.076;3.784;2023-04-03T14:57:25;3.88;;;1.45;;
45408;SDS011;31162;51.076;3.784;2023-04-03T14:59:52;2.47;;;1.33;;
45408;SDS011;31162;51.076;3.784;2023-04-03T15:02:29;2.47;;;1.25;;
45408;SDS011;31162;51.076;3.784;2023-04-03T15:04:55;2.80;;;1.17;;
45408;SDS011;31162;51.076;3.784;2023-04-03T15:07:22;2.08;;;1.50;;
45408;SDS011;31162;51.076;3.784;2023-04-03T15:09:50;1.63;;;1.17;;
45408;SDS011;31162;51.076;3.784;2023-04-03T15:12:15;2.03;;;1.20;;
45408;SDS011;31162;51.076;3.784;2023-04-03T15:14:41;2.55;;;0.95;;
45408;SDS011;31162;51.076;3.784;2023-04-03T15:17:08;2.10;;;1.10;;
45408;SDS011;31162;51.076;3.784;2023-04-03T15:19:43;4.05;;;1.50;;
45408;SDS011;31162;51.076;3.784;2023-04-03T15:22:18;2.70;;;1.05;;
45408;SDS011;31162;51.076;3.784;2023-04-03T15:24:44;2.95;;;1.40;;
45408;SDS011;31162;51.076;3.784;2023-04-03T15:27:11;1.35;;;1.15;;
45408;SDS011;31162;51.076;3.784;2023-04-03T15:29:38;2.75;;;1.20;;
45408;SDS011;31162;51.076;3.784;2023-04-03T15:32:05;2.97;;;1.40;;
45408;SDS011;31162;51.076;3.784;2023-04-03T15:34:31;2.65;;;1.20;;
45408;SDS011;31162;51.076;3.784;2023-04-03T15:36:57;1.85;;;0.90;;
45408;SDS011;31162;51.076;3.784;2023-04-03T15:39:24;1.88;;;1.05;;
45408;SDS011;31162;51.076;3.784;2023-04-03T15:41:50;2.22;;;0.95;;
45408;SDS011;31162;51.076;3.784;2023-04-03T15:44:17;4.63;;;1.10;;
45408;SDS011;31162;51.076;3.784;2023-04-03T15:46:43;2.15;;;0.93;;
45408;SDS011;31162;51.076;3.784;2023-04-03T15:49:10;5.72;;;1.17;;
45408;SDS011;31162;51.076;3.784;2023-04-03T15:51:37;1.95;;;1.13;;
45408;SDS011;31162;51.076;3.784;2023-04-03T15:54:02;1.98;;;1.10;;
45408;SDS011;31162;51.076;3.784;2023-04-03T15:56:28;4.03;;;1.30;;
45408;SDS011;31162;51.076;3.784;2023-04-03T15:58:54;1.45;;;1.00;;
45408;SDS011;31162;51.076;3.784;2023-04-03T16:01:20;2.58;;;1.10;;
45408;SDS011;31162;51.076;3.784;2023-04-03T16:03:45;1.98;;;1.02;;
45408;SDS011;31162;51.076;3.784;2023-04-03T16:06:15;2.90;;;1.15;;
45408;SDS011;31162;51.076;3.784;2023-04-03T16:08:41;2.97;;;1.40;;
45408;SDS011;31162;51.076;3.784;2023-04-03T16:11:07;3.42;;;1.40;;
45408;SDS011;31162;51.076;3.784;2023-04-03T16:13:34;2.55;;;1.08;;
45408;SDS011;31162;51.076;3.784;2023-04-03T16:16:00;2.13;;;1.40;;
45408;SDS011;31162;51.076;3.784;2023-04-03T16:18:26;2.97;;;1.30;;
45408;SDS011;31162;51.076;3.784;2023-04-03T16:20:54;3.42;;;1.17;;
45408;SDS011;31162;51.076;3.784;2023-04-03T16:23:20;2.03;;;1.10;;
45408;SDS011;31162;51.076;3.784;2023-04-03T16:25:46;2.38;;;1.20;;
45408;SDS011;31162;51.076;3.784;2023-04-03T16:28:12;1.50;;;1.10;;
45408;SDS011;31162;51.076;3.784;2023-04-03T16:30:42;4.78;;;1.08;;
45408;SDS011;31162;51.076;3.784;2023-04-03T16:33:12;2.25;;;1.00;;
45408;SDS011;31162;51.076;3.784;2023-04-03T16:35:38;2.25;;;1.33;;
45408;SDS011;31162;51.076;3.784;2023-04-03T16:38:04;2.97;;;1.02;;
45408;SDS011;31162;51.076;3.784;2023-04-03T16:40:30;1.50;;;1.02;;
45408;SDS011;31162;51.076;3.784;2023-04-03T16:42:58;3.13;;;1.13;;
45408;SDS011;31162;51.076;3.784;2023-04-03T16:45:24;2.45;;;1.20;;
45408;SDS011;31162;51.076;3.784;2023-04-03T16:47:50;1.63;;;1.00;;